createdAt,value
2019-03-05T00:01:24.798Z,8.40
2019-03-05T00:03:53.782Z,8.20
2019-03-05T00:06:23.332Z,8.30
2019-03-05T00:08:52.286Z,8.40
2019-03-05T00:11:21.268Z,8.20
2019-03-05T00:13:50.225Z,8.10
2019-03-05T00:16:19.278Z,8.10
2019-03-05T00:18:48.243Z,8.50
2019-03-05T00:21:17.595Z,8.50
2019-03-05T00:23:50.990Z,8.50
2019-03-05T00:26:31.194Z,8.30
2019-03-05T00:29:12.027Z,8.40
2019-03-05T00:31:46.602Z,8.60
2019-03-05T00:34:24.724Z,8.60
2019-03-05T00:36:56.773Z,8.70
2019-03-05T00:39:40.818Z,8.60
2019-03-05T00:42:46.093Z,8.80
2019-03-05T00:45:27.438Z,8.70
2019-03-05T00:48:11.440Z,8.80
2019-03-05T00:51:00.174Z,8.80
2019-03-05T00:53:48.925Z,8.70
2019-03-05T00:56:20.960Z,8.60
2019-03-05T00:58:53.011Z,8.60
2019-03-05T01:01:25.054Z,8.60
2019-03-05T01:04:18.159Z,8.80
2019-03-05T01:06:47.136Z,8.90
2019-03-05T01:09:17.393Z,8.80
2019-03-05T01:11:47.435Z,8.70
2019-03-05T01:14:16.818Z,8.50
2019-03-05T01:16:46.538Z,8.70
2019-03-05T01:19:15.565Z,8.70
2019-03-05T01:21:44.616Z,8.70
2019-03-05T01:24:13.923Z,8.90
2019-03-05T01:26:42.898Z,8.90
2019-03-05T01:29:11.928Z,8.90
2019-03-05T01:31:42.771Z,8.90
2019-03-05T01:34:13.382Z,8.90
2019-03-05T01:36:43.998Z,8.80
2019-03-05T01:39:32.322Z,8.90
2019-03-05T01:42:01.435Z,8.90
2019-03-05T01:44:30.393Z,8.80
2019-03-05T01:46:59.368Z,8.90
2019-03-05T01:49:28.334Z,8.80
2019-03-05T01:51:57.302Z,8.80
2019-03-05T01:54:26.263Z,8.80
2019-03-05T01:56:55.247Z,8.90
2019-03-05T01:59:24.198Z,8.90
2019-03-05T02:01:53.239Z,8.80
2019-03-05T02:04:22.187Z,8.70
2019-03-05T02:06:51.300Z,8.80
2019-03-05T02:09:20.342Z,8.80
2019-03-05T02:11:49.383Z,9.00
2019-03-05T02:14:18.407Z,8.80
2019-03-05T02:16:47.386Z,8.90
2019-03-05T02:19:42.279Z,8.90
2019-03-05T02:22:16.888Z,8.70
2019-03-05T02:25:08.418Z,8.80
2019-03-05T02:28:01.826Z,8.90
2019-03-05T02:31:01.190Z,8.90
2019-03-05T02:33:41.681Z,8.70
2019-03-05T02:36:25.791Z,8.60
2019-03-05T02:39:31.127Z,8.70
2019-03-05T02:42:31.744Z,8.50
2019-03-05T02:45:16.212Z,8.40
2019-03-05T02:47:51.046Z,8.60
2019-03-05T02:50:23.139Z,8.50
2019-03-05T02:53:00.326Z,8.60
2019-03-05T02:55:31.610Z,8.70
2019-03-05T02:57:59.595Z,8.50
2019-03-05T03:00:33.180Z,8.50
2019-03-05T03:03:18.569Z,8.60
2019-03-05T03:05:49.206Z,8.50
2019-03-05T03:08:18.174Z,8.60
2019-03-05T03:10:47.143Z,8.60
2019-03-05T03:13:16.103Z,8.60
2019-03-05T03:15:45.084Z,8.70
2019-03-05T03:18:14.054Z,8.70
2019-03-05T03:20:43.043Z,8.60
2019-03-05T03:23:12.004Z,8.50
2019-03-05T03:25:41.058Z,8.60
2019-03-05T03:28:10.102Z,8.60
2019-03-05T03:30:39.061Z,8.50
2019-03-05T03:33:08.016Z,8.80
2019-03-05T03:35:36.979Z,8.80
2019-03-05T03:38:05.971Z,8.60
2019-03-05T03:40:34.970Z,8.90
2019-03-05T03:43:04.057Z,8.90
2019-03-05T03:45:33.097Z,8.80
2019-03-05T03:48:02.190Z,8.80
2019-03-05T03:50:31.171Z,8.90
2019-03-05T03:53:00.151Z,8.90
2019-03-05T03:55:29.265Z,8.50
2019-03-05T03:57:58.377Z,8.90
2019-03-05T04:00:27.500Z,8.80
2019-03-05T04:02:56.455Z,8.70
2019-03-05T04:05:25.442Z,8.50
2019-03-05T04:07:54.535Z,8.80
2019-03-05T04:10:23.533Z,8.80
2019-03-05T04:12:52.553Z,8.90
2019-03-05T04:15:21.627Z,8.80
2019-03-05T04:17:50.659Z,8.70
2019-03-05T04:20:24.528Z,8.80
2019-03-05T04:22:53.483Z,8.60
2019-03-05T04:25:22.458Z,8.60
2019-03-05T04:27:51.411Z,8.70
2019-03-05T04:30:20.379Z,8.70
2019-03-05T04:32:49.367Z,8.40
2019-03-05T04:35:18.330Z,8.70
2019-03-05T04:37:47.299Z,8.80
2019-03-05T04:40:16.275Z,8.70
2019-03-05T04:42:45.231Z,8.80
2019-03-05T04:45:33.311Z,8.80
2019-03-05T04:48:02.282Z,8.70
2019-03-05T04:50:32.883Z,8.70
2019-03-05T04:53:01.846Z,8.60
2019-03-05T04:55:30.831Z,8.70
2019-03-05T04:57:59.897Z,8.70
2019-03-05T05:00:28.936Z,8.50
2019-03-05T05:02:58.491Z,8.50
2019-03-05T05:05:27.562Z,8.40
2019-03-05T05:07:56.535Z,8.60
2019-03-05T05:10:25.563Z,8.70
2019-03-05T05:12:54.611Z,8.60
2019-03-05T05:15:32.226Z,8.50
2019-03-05T05:18:01.744Z,8.40
2019-03-05T05:20:30.831Z,8.50
2019-03-05T05:22:59.806Z,8.70
2019-03-05T05:25:28.772Z,8.60
2019-03-05T05:27:57.808Z,8.70
2019-03-05T05:30:32.159Z,8.60
2019-03-05T05:33:01.265Z,8.80
2019-03-05T05:35:30.291Z,8.80
2019-03-05T05:37:59.338Z,8.60
2019-03-05T05:40:39.990Z,8.80
2019-03-05T05:43:11.998Z,8.80
2019-03-05T05:45:44.032Z,8.70
2019-03-05T05:48:13.087Z,8.70
2019-03-05T05:50:42.193Z,8.60
2019-03-05T05:53:11.171Z,8.60
2019-03-05T05:55:40.462Z,8.60
2019-03-05T05:58:09.456Z,8.70
2019-03-05T06:00:43.171Z,8.70
2019-03-05T06:03:12.276Z,8.50
2019-03-05T06:05:41.302Z,8.60
2019-03-05T06:08:10.274Z,8.50
2019-03-05T06:10:39.247Z,8.60
2019-03-05T06:13:08.302Z,8.60
2019-03-05T06:15:37.263Z,8.60
2019-03-05T06:18:06.230Z,8.50
2019-03-05T06:20:35.212Z,8.70
2019-03-05T06:23:04.168Z,8.40
2019-03-05T06:25:33.143Z,8.50
2019-03-05T06:28:02.163Z,8.60
2019-03-05T06:30:42.130Z,8.60
2019-03-05T06:33:11.087Z,8.60
2019-03-05T06:35:40.046Z,8.60
2019-03-05T06:38:09.133Z,8.50
2019-03-05T06:40:38.116Z,8.50
2019-03-05T06:43:07.080Z,8.70
2019-03-05T06:45:36.140Z,8.80
2019-03-05T06:48:05.115Z,8.70
2019-03-05T06:50:34.078Z,8.60
2019-03-05T06:53:03.053Z,8.50
2019-03-05T06:55:32.046Z,8.80
2019-03-05T06:58:01.014Z,8.40
2019-03-05T07:00:34.190Z,8.90
2019-03-05T07:03:04.339Z,9.00
2019-03-05T07:06:09.494Z,9.00
2019-03-05T07:08:41.474Z,8.90
2019-03-05T07:11:33.074Z,9.00
2019-03-05T07:14:05.111Z,8.70
2019-03-05T07:16:37.155Z,8.80
2019-03-05T07:19:06.778Z,8.70
2019-03-05T07:21:59.456Z,8.90
2019-03-05T07:24:48.805Z,8.80
2019-03-05T07:27:20.676Z,8.80
2019-03-05T07:29:49.654Z,8.80
2019-03-05T07:32:18.640Z,8.90
2019-03-05T07:34:49.241Z,9.00
2019-03-05T07:37:18.218Z,8.70
2019-03-05T07:39:47.200Z,8.70
2019-03-05T07:42:16.159Z,9.10
2019-03-05T07:44:45.158Z,9.10
2019-03-05T07:47:14.159Z,9.00
2019-03-05T07:49:44.290Z,8.90
2019-03-05T07:52:13.386Z,8.90
2019-03-05T07:54:42.389Z,8.90
2019-03-05T07:57:11.346Z,8.90
2019-03-05T07:59:40.336Z,8.90
2019-03-05T08:02:09.375Z,9.10
2019-03-05T08:04:38.346Z,9.10
2019-03-05T08:07:07.390Z,9.30
2019-03-05T08:09:38.008Z,9.60
2019-03-05T08:12:25.067Z,9.20
2019-03-05T08:15:18.579Z,9.00
2019-03-05T08:17:47.559Z,9.10
2019-03-05T08:20:16.524Z,9.40
2019-03-05T08:22:45.489Z,9.30
2019-03-05T08:25:15.043Z,9.00
2019-03-05T08:27:44.071Z,9.30
2019-03-05T08:30:15.993Z,9.30
2019-03-05T08:32:45.017Z,9.30
2019-03-05T08:35:13.997Z,8.80
2019-03-05T08:37:42.956Z,9.10
2019-03-05T08:40:13.800Z,9.30
2019-03-05T08:42:42.830Z,9.30
2019-03-05T08:45:15.755Z,9.30
2019-03-05T08:47:44.796Z,9.40
2019-03-05T08:50:15.483Z,9.40
2019-03-05T08:52:44.516Z,9.60
2019-03-05T08:55:13.562Z,9.70
2019-03-05T08:57:42.533Z,9.80
2019-03-05T09:00:20.141Z,9.50
2019-03-05T09:02:49.509Z,9.60
2019-03-05T09:05:19.730Z,9.60
2019-03-05T09:07:49.162Z,9.40
2019-03-05T09:10:24.102Z,9.20
2019-03-05T09:12:53.062Z,9.50
2019-03-05T09:15:22.120Z,9.50
2019-03-05T09:17:51.110Z,9.20
2019-03-05T09:20:20.551Z,9.50
2019-03-05T09:22:49.534Z,9.40
2019-03-05T09:25:19.242Z,9.40
2019-03-05T09:27:48.276Z,9.60
2019-03-05T09:30:21.180Z,9.40
2019-03-05T09:32:50.307Z,9.60
2019-03-05T09:35:19.527Z,9.50
2019-03-05T09:37:48.478Z,9.40
2019-03-05T09:40:33.406Z,9.00
2019-03-05T09:43:02.451Z,9.30
2019-03-05T09:45:31.496Z,9.10
2019-03-05T09:48:00.620Z,9.20
2019-03-05T09:50:31.972Z,9.50
2019-03-05T09:53:00.732Z,9.50
2019-03-05T09:55:31.417Z,9.40
2019-03-05T09:58:07.967Z,9.50
2019-03-05T10:00:31.684Z,9.40
2019-03-05T10:03:00.640Z,8.90
2019-03-05T10:05:29.687Z,9.00
2019-03-05T10:07:58.659Z,9.00
2019-03-05T10:10:31.663Z,9.00
2019-03-05T10:13:04.340Z,9.10
2019-03-05T10:15:43.983Z,8.90
2019-03-05T10:18:13.325Z,8.50
2019-03-05T10:20:42.486Z,8.90
2019-03-05T10:23:11.639Z,8.90
2019-03-05T10:25:40.616Z,9.00
2019-03-05T10:28:09.645Z,8.60
2019-03-05T10:30:40.793Z,8.50
2019-03-05T10:33:11.535Z,8.50
2019-03-05T10:35:40.975Z,8.30
2019-03-05T10:38:11.055Z,8.50
2019-03-05T10:40:48.693Z,8.20
2019-03-05T10:43:18.038Z,8.40
2019-03-05T10:45:47.862Z,8.70
2019-03-05T10:48:21.891Z,8.70
2019-03-05T10:50:51.236Z,8.30
2019-03-05T10:53:20.803Z,8.30
2019-03-05T10:55:49.850Z,8.60
2019-03-05T10:58:19.477Z,8.10
2019-03-05T11:00:56.189Z,8.50
2019-03-05T11:03:29.755Z,8.60
2019-03-05T11:05:58.882Z,8.50
2019-03-05T11:08:27.974Z,7.90
2019-03-05T11:10:57.687Z,8.50
2019-03-05T11:13:26.727Z,8.50
2019-03-05T11:16:00.949Z,8.40
2019-03-05T11:18:30.217Z,8.80
2019-03-05T11:20:59.549Z,8.60
2019-03-05T11:23:28.607Z,8.70
2019-03-05T11:25:57.655Z,8.80
2019-03-05T11:28:26.791Z,8.90
2019-03-05T11:30:55.817Z,8.80
2019-03-05T11:33:24.857Z,9.20
2019-03-05T11:35:53.988Z,9.10
2019-03-05T11:38:23.022Z,9.30
2019-03-05T11:40:52.019Z,9.40
2019-03-05T11:43:20.983Z,9.20
2019-03-05T11:45:50.091Z,9.40
2019-03-05T11:48:19.149Z,9.40
2019-03-05T11:50:48.197Z,9.30
2019-03-05T11:53:17.479Z,9.30
2019-03-05T11:55:46.515Z,9.50
2019-03-05T11:58:15.627Z,9.60
2019-03-05T12:00:52.398Z,9.40
2019-03-05T12:03:21.356Z,9.60
2019-03-05T12:05:50.477Z,9.50
2019-03-05T12:08:19.439Z,9.60
2019-03-05T12:10:48.480Z,8.90
2019-03-05T12:13:17.527Z,9.30
2019-03-05T12:15:46.566Z,9.60
2019-03-05T12:18:15.538Z,9.60
2019-03-05T12:20:44.584Z,9.60
2019-03-05T12:23:13.628Z,9.60
2019-03-05T12:25:42.671Z,9.50
2019-03-05T12:28:11.681Z,9.30
2019-03-05T12:30:40.799Z,9.50
2019-03-05T12:33:09.895Z,9.60
2019-03-05T12:35:38.887Z,9.60
2019-03-05T12:38:07.922Z,9.80
2019-03-05T12:40:36.937Z,9.90
2019-03-05T12:43:06.081Z,9.70
2019-03-05T12:45:35.266Z,9.90
2019-03-05T12:48:05.073Z,10.10
2019-03-05T12:50:36.016Z,10.00
2019-03-05T12:53:05.410Z,10.00
2019-03-05T12:55:34.475Z,10.00
2019-03-05T12:58:03.538Z,9.90
2019-03-05T13:00:36.238Z,9.80
2019-03-05T13:03:05.450Z,9.80
2019-03-05T13:05:34.436Z,10.00
2019-03-05T13:08:03.459Z,10.00
2019-03-05T13:10:36.032Z,9.60
2019-03-05T13:13:05.499Z,10.00
2019-03-05T13:15:39.284Z,10.00
2019-03-05T13:18:08.412Z,10.20
2019-03-05T13:20:37.414Z,10.00
2019-03-05T13:23:09.592Z,10.30
2019-03-05T13:25:38.248Z,10.20
2019-03-05T13:28:07.703Z,10.20
2019-03-05T13:30:36.851Z,10.60
2019-03-05T13:33:05.892Z,10.30
2019-03-05T13:35:34.865Z,10.50
2019-03-05T13:38:09.537Z,10.50
2019-03-05T13:40:40.507Z,11.00
2019-03-05T13:43:09.487Z,10.80
2019-03-05T13:45:42.803Z,10.80
2019-03-05T13:48:33.457Z,11.10
2019-03-05T13:51:19.609Z,11.20
2019-03-05T13:54:05.699Z,11.00
2019-03-05T13:56:37.852Z,11.00
2019-03-05T13:59:36.570Z,11.20
2019-03-05T14:02:07.178Z,11.30
2019-03-05T14:04:42.186Z,11.40
2019-03-05T14:07:22.758Z,11.40
2019-03-05T14:09:52.479Z,11.10
2019-03-05T14:12:21.462Z,11.40
2019-03-05T14:14:50.434Z,11.10
2019-03-05T14:17:21.082Z,11.10
2019-03-05T14:19:50.347Z,11.20
2019-03-05T14:22:19.493Z,11.40
2019-03-05T14:24:48.538Z,11.00
2019-03-05T14:27:17.810Z,11.30
2019-03-05T14:29:46.765Z,11.00
2019-03-05T14:32:15.862Z,11.10
2019-03-05T14:34:56.942Z,11.30
2019-03-05T14:37:26.006Z,11.40
2019-03-05T14:39:55.053Z,11.10
2019-03-05T14:42:24.134Z,10.70
2019-03-05T14:44:53.210Z,10.90
2019-03-05T14:47:22.438Z,11.10
2019-03-05T14:49:51.437Z,11.10
2019-03-05T14:52:20.510Z,11.00
2019-03-05T14:54:49.678Z,11.00
2019-03-05T14:57:18.668Z,11.00
2019-03-05T14:59:47.669Z,10.90
2019-03-05T15:02:16.706Z,10.80
2019-03-05T15:04:45.718Z,11.10
2019-03-05T15:07:14.766Z,10.90
2019-03-05T15:09:43.803Z,10.90
2019-03-05T15:12:12.773Z,10.80
2019-03-05T15:14:41.847Z,10.80
2019-03-05T15:17:10.876Z,11.00
2019-03-05T15:19:39.853Z,10.70
2019-03-05T15:22:08.932Z,10.80
2019-03-05T15:24:37.882Z,10.50
2019-03-05T15:27:06.877Z,10.70
2019-03-05T15:29:35.906Z,10.60
2019-03-05T15:32:05.043Z,10.20
2019-03-05T15:34:33.986Z,10.80
2019-03-05T15:37:03.007Z,10.70
2019-03-05T15:39:32.015Z,10.50
2019-03-05T15:42:01.015Z,10.40
2019-03-05T15:44:30.010Z,10.40
2019-03-05T15:46:59.080Z,10.40
2019-03-05T15:49:28.113Z,10.10
2019-03-05T15:51:57.133Z,10.30
2019-03-05T15:54:26.104Z,10.40
2019-03-05T15:56:56.327Z,10.20
2019-03-05T15:59:25.392Z,10.40
2019-03-05T16:01:54.455Z,10.30
2019-03-05T16:04:23.502Z,10.30
2019-03-05T16:06:52.544Z,10.40
2019-03-05T16:09:21.518Z,10.10
2019-03-05T16:11:50.514Z,10.10
2019-03-05T16:14:19.473Z,10.10
2019-03-05T16:16:51.769Z,10.20
2019-03-05T16:19:19.185Z,10.10
2019-03-05T16:21:48.175Z,10.30
2019-03-05T16:24:17.151Z,10.40
2019-03-05T16:26:46.134Z,9.90
2019-03-05T16:29:16.263Z,9.70
2019-03-05T16:31:50.104Z,9.90
2019-03-05T16:34:40.007Z,10.10
2019-03-05T16:37:10.626Z,10.10
2019-03-05T16:39:41.240Z,9.80
2019-03-05T16:42:17.831Z,9.80
2019-03-05T16:44:48.432Z,10.00
2019-03-05T16:47:24.795Z,9.60
2019-03-05T16:50:10.395Z,10.00
2019-03-05T16:52:46.890Z,9.60
2019-03-05T16:55:17.640Z,10.00
2019-03-05T16:57:50.960Z,9.90
2019-03-05T17:00:24.662Z,10.00
2019-03-05T17:02:55.278Z,9.90
2019-03-05T17:05:29.494Z,10.10
2019-03-05T17:08:15.142Z,10.20
2019-03-05T17:11:02.095Z,10.20
2019-03-05T17:13:31.131Z,10.20
2019-03-05T17:16:00.103Z,10.00
2019-03-05T17:18:29.254Z,10.20
2019-03-05T17:20:58.281Z,10.10
2019-03-05T17:23:27.331Z,10.20
2019-03-05T17:25:56.317Z,10.20
2019-03-05T17:28:25.301Z,10.20
2019-03-05T17:30:54.261Z,10.30
2019-03-05T17:33:23.259Z,10.30
2019-03-05T17:35:52.366Z,10.30
2019-03-05T17:38:21.358Z,10.20
2019-03-05T17:40:50.311Z,10.30
2019-03-05T17:43:19.287Z,10.20
2019-03-05T17:45:48.276Z,10.10
2019-03-05T17:48:17.262Z,10.20
2019-03-05T17:50:46.224Z,10.20
2019-03-05T17:53:15.203Z,10.20
2019-03-05T17:55:44.407Z,10.20
2019-03-05T17:58:13.415Z,10.30
2019-03-05T18:00:44.029Z,10.30
2019-03-05T18:03:13.003Z,10.30
2019-03-05T18:05:42.003Z,10.30
2019-03-05T18:08:11.188Z,10.00
2019-03-05T18:10:40.227Z,10.40
2019-03-05T18:13:09.376Z,10.40
2019-03-05T18:15:38.390Z,10.20
2019-03-05T18:18:07.383Z,10.20
2019-03-05T18:20:36.356Z,10.20
2019-03-05T18:23:05.337Z,10.10
2019-03-05T18:25:34.412Z,10.10
2019-03-05T18:28:03.428Z,10.00
2019-03-05T18:30:32.779Z,9.80
2019-03-05T18:33:01.734Z,9.60
2019-03-05T18:35:30.883Z,9.50
2019-03-05T18:37:59.995Z,9.40
2019-03-05T18:40:29.116Z,9.30
2019-03-05T18:42:58.099Z,9.20
2019-03-05T18:45:34.707Z,9.20
2019-03-05T18:48:03.802Z,9.30
2019-03-05T18:50:32.929Z,9.20
2019-03-05T18:53:03.031Z,9.20
2019-03-05T18:55:32.356Z,9.00
2019-03-05T18:58:01.470Z,9.00
2019-03-05T19:00:34.623Z,9.00
2019-03-05T19:03:08.475Z,9.00
2019-03-05T19:05:38.019Z,9.10
2019-03-05T19:08:07.067Z,9.10
2019-03-05T19:10:36.114Z,9.00
2019-03-05T19:13:05.215Z,9.10
2019-03-05T19:15:34.322Z,8.80
2019-03-05T19:18:03.727Z,8.70
2019-03-05T19:20:33.067Z,8.60
2019-03-05T19:23:02.102Z,8.70
2019-03-05T19:25:39.983Z,8.80
2019-03-05T19:28:11.351Z,8.70
2019-03-05T19:30:48.120Z,8.80
2019-03-05T19:33:17.137Z,8.80
2019-03-05T19:35:46.147Z,8.70
2019-03-05T19:38:15.184Z,8.80
2019-03-05T19:40:46.382Z,8.80
2019-03-05T19:43:15.503Z,8.70
2019-03-05T19:45:44.480Z,8.60
2019-03-05T19:48:13.464Z,8.70
2019-03-05T19:50:42.807Z,8.80
2019-03-05T19:53:11.905Z,8.80
2019-03-05T19:55:40.910Z,8.70
2019-03-05T19:58:16.007Z,8.60
2019-03-05T20:00:58.382Z,8.70
2019-03-05T20:03:27.570Z,8.70
2019-03-05T20:05:56.622Z,8.70
2019-03-05T20:08:25.594Z,8.70
2019-03-05T20:10:54.923Z,8.70
2019-03-05T20:13:23.986Z,8.70
2019-03-05T20:15:53.106Z,8.60
2019-03-05T20:18:22.126Z,8.70
2019-03-05T20:20:51.177Z,8.70
2019-03-05T20:23:20.211Z,8.80
2019-03-05T20:25:49.216Z,8.90
2019-03-05T20:28:18.269Z,8.90
2019-03-05T20:30:47.264Z,8.90
2019-03-05T20:33:16.242Z,8.90
2019-03-05T20:35:45.247Z,8.90
2019-03-05T20:38:14.233Z,8.90
2019-03-05T20:40:43.285Z,8.90
2019-03-05T20:43:12.334Z,8.90
2019-03-05T20:45:44.252Z,8.90
2019-03-05T20:48:13.366Z,9.00
2019-03-05T20:50:42.350Z,8.90
2019-03-05T20:53:11.323Z,8.90
2019-03-05T20:55:40.394Z,8.80
2019-03-05T20:58:09.358Z,8.80
2019-03-05T21:00:39.595Z,8.80
2019-03-05T21:03:12.449Z,8.70
2019-03-05T21:05:46.563Z,8.70
2019-03-05T21:08:15.561Z,8.50
2019-03-05T21:10:44.629Z,8.60
2019-03-05T21:13:13.643Z,8.50
2019-03-05T21:15:42.641Z,8.50
2019-03-05T21:18:19.326Z,8.50
2019-03-05T21:20:47.868Z,8.50
2019-03-05T21:23:17.121Z,8.40
2019-03-05T21:25:46.098Z,8.40
2019-03-05T21:28:15.072Z,8.30
2019-03-05T21:30:44.067Z,8.30
2019-03-05T21:33:13.022Z,8.30
2019-03-05T21:35:42.095Z,8.30
2019-03-05T21:38:11.088Z,8.30
2019-03-05T21:40:40.111Z,8.30
2019-03-05T21:43:09.236Z,8.30
2019-03-05T21:45:44.142Z,8.30
2019-03-05T21:48:13.098Z,8.40
2019-03-05T21:50:42.086Z,8.40
2019-03-05T21:53:11.187Z,8.40
2019-03-05T21:55:40.162Z,8.40
2019-03-05T21:58:09.644Z,8.30
2019-03-05T22:00:40.563Z,8.40
2019-03-05T22:03:09.696Z,8.40
2019-03-05T22:05:38.682Z,8.50
2019-03-05T22:08:07.654Z,8.50
2019-03-05T22:10:36.914Z,8.50
2019-03-05T22:13:05.987Z,8.50
2019-03-05T22:15:36.102Z,8.60
2019-03-05T22:18:05.282Z,8.50
2019-03-05T22:20:34.310Z,8.50
2019-03-05T22:23:03.371Z,8.60
2019-03-05T22:25:32.406Z,8.60
2019-03-05T22:28:01.392Z,8.60
2019-03-05T22:30:35.017Z,8.70
2019-03-05T22:33:04.626Z,8.70
2019-03-05T22:35:33.646Z,8.80
2019-03-05T22:38:02.692Z,8.80
2019-03-05T22:40:31.735Z,8.90
2019-03-05T22:43:00.737Z,9.00
2019-03-05T22:45:33.772Z,9.00
2019-03-05T22:48:02.808Z,9.10
2019-03-05T22:50:31.766Z,9.10
2019-03-05T22:53:00.745Z,9.00
2019-03-05T22:55:29.794Z,8.90
2019-03-05T22:57:59.159Z,9.00
2019-03-05T23:01:00.658Z,9.00
2019-03-05T23:03:31.086Z,9.00
2019-03-05T23:06:02.759Z,9.10
2019-03-05T23:08:31.795Z,9.10
2019-03-05T23:11:01.212Z,9.10
2019-03-05T23:13:30.966Z,9.20
2019-03-05T23:16:00.342Z,9.20
2019-03-05T23:18:29.403Z,9.10
2019-03-05T23:20:58.455Z,9.00
2019-03-05T23:23:27.486Z,9.20
2019-03-05T23:25:56.524Z,9.30
2019-03-05T23:28:25.844Z,9.30
2019-03-05T23:30:54.823Z,9.30
2019-03-05T23:33:24.730Z,9.30
2019-03-05T23:35:53.699Z,9.40
2019-03-05T23:38:22.678Z,9.40
2019-03-05T23:40:51.718Z,9.40
2019-03-05T23:43:20.694Z,9.30
2019-03-05T23:45:49.658Z,9.30
2019-03-05T23:48:18.733Z,9.40
2019-03-05T23:50:47.708Z,9.40
2019-03-05T23:53:16.764Z,9.50
2019-03-05T23:55:45.794Z,9.50
2019-03-05T23:58:15.143Z,9.50
